createdAt,value
2022-11-28T00:00:26.171Z,5.50
2022-11-28T00:03:12.441Z,5.40
2022-11-28T00:06:04.409Z,5.50
2022-11-28T00:08:52.232Z,5.40
2022-11-28T00:11:40.859Z,5.40
2022-11-28T00:14:27.010Z,5.40
2022-11-28T00:17:13.301Z,5.30
2022-11-28T00:19:59.878Z,5.20
2022-11-28T00:22:46.460Z,5.10
2022-11-28T00:25:34.100Z,5.20
2022-11-28T00:28:20.590Z,5.20
2022-11-28T00:31:07.346Z,5.20
2022-11-28T00:33:54.420Z,5.20
2022-11-28T00:36:40.612Z,5.20
2022-11-28T00:39:27.214Z,5.10
2022-11-28T00:42:16.514Z,5.10
2022-11-28T00:45:02.859Z,5.00
2022-11-28T00:47:49.187Z,5.00
2022-11-28T00:50:35.422Z,4.90
2022-11-28T00:53:22.106Z,5.00
2022-11-28T00:56:09.673Z,5.00
2022-11-28T00:58:57.847Z,5.10
2022-11-28T01:01:45.057Z,5.10
2022-11-28T01:04:31.371Z,5.10
2022-11-28T01:07:18.108Z,5.10
2022-11-28T01:10:04.819Z,5.00
2022-11-28T01:12:51.312Z,5.10
2022-11-28T01:15:44.033Z,5.00
2022-11-28T01:18:30.379Z,5.00
2022-11-28T01:21:16.993Z,4.90
2022-11-28T01:24:03.452Z,4.90
2022-11-28T01:26:49.622Z,5.00
2022-11-28T01:29:36.135Z,5.00
2022-11-28T01:32:23.711Z,5.10
2022-11-28T01:35:10.657Z,5.10
2022-11-28T01:37:56.967Z,5.10
2022-11-28T01:40:46.626Z,5.00
2022-11-28T01:43:33.351Z,5.00
2022-11-28T01:46:19.846Z,4.90
2022-11-28T01:49:12.643Z,5.00
2022-11-28T01:52:03.962Z,5.00
2022-11-28T01:54:54.019Z,5.00
2022-11-28T01:57:41.101Z,5.00
2022-11-28T02:00:27.427Z,5.00
2022-11-28T02:03:18.494Z,5.00
2022-11-28T02:06:06.753Z,5.00
2022-11-28T02:08:54.038Z,4.90
2022-11-28T02:11:54.565Z,4.80
2022-11-28T02:15:03.967Z,4.80
2022-11-28T02:18:04.197Z,4.70
2022-11-28T02:21:11.228Z,4.70
2022-11-28T02:24:40.889Z,4.70
2022-11-28T02:27:38.839Z,4.80
2022-11-28T02:30:31.068Z,4.80
2022-11-28T02:33:26.109Z,4.80
2022-11-28T02:36:16.775Z,4.80
2022-11-28T02:39:12.291Z,4.80
2022-11-28T02:42:07.000Z,4.70
2022-11-28T02:44:59.923Z,4.70
2022-11-28T02:47:51.166Z,4.70
2022-11-28T02:50:43.025Z,4.70
2022-11-28T02:53:33.785Z,4.70
2022-11-28T02:56:20.568Z,4.60
2022-11-28T02:59:32.089Z,4.70
2022-11-28T03:02:20.771Z,4.60
2022-11-28T03:05:12.378Z,4.60
2022-11-28T03:08:11.707Z,4.60
2022-11-28T03:11:04.263Z,4.60
2022-11-28T03:13:58.367Z,4.60
2022-11-28T03:16:50.121Z,4.60
2022-11-28T03:19:40.884Z,4.70
2022-11-28T03:22:31.443Z,4.70
2022-11-28T03:25:29.568Z,4.60
2022-11-28T03:28:22.490Z,4.70
2022-11-28T03:31:13.902Z,4.70
2022-11-28T03:34:02.003Z,4.80
2022-11-28T03:36:53.350Z,4.80
2022-11-28T03:39:42.559Z,4.80
2022-11-28T03:42:33.603Z,4.80
2022-11-28T03:45:23.224Z,4.90
2022-11-28T03:48:13.850Z,5.00
2022-11-28T03:51:07.060Z,5.10
2022-11-28T03:54:00.635Z,5.20
2022-11-28T03:56:52.951Z,5.20
2022-11-28T03:59:43.802Z,5.10
2022-11-28T04:02:35.178Z,5.00
2022-11-28T04:05:26.671Z,5.10
2022-11-28T04:08:16.583Z,5.10
2022-11-28T04:11:08.549Z,5.20
2022-11-28T04:13:59.283Z,5.20
2022-11-28T04:16:54.057Z,5.20
2022-11-28T04:19:44.726Z,5.10
2022-11-28T04:22:34.579Z,5.30
2022-11-28T04:25:24.672Z,5.30
2022-11-28T04:28:14.505Z,5.30
2022-11-28T04:31:03.759Z,5.20
2022-11-28T04:33:55.819Z,5.10
2022-11-28T04:36:44.711Z,5.10
2022-11-28T04:39:34.507Z,5.10
2022-11-28T04:42:23.311Z,5.10
2022-11-28T04:45:14.890Z,5.10
2022-11-28T04:48:02.696Z,5.10
2022-11-28T04:50:59.005Z,5.20
2022-11-28T04:53:50.212Z,5.10
2022-11-28T04:56:42.037Z,5.10
2022-11-28T04:59:31.224Z,5.10
2022-11-28T05:02:20.546Z,5.00
2022-11-28T05:05:10.995Z,4.80
2022-11-28T05:07:58.977Z,4.80
2022-11-28T05:10:45.639Z,4.80
2022-11-28T05:13:31.946Z,4.70
2022-11-28T05:16:18.688Z,4.70
2022-11-28T05:19:05.244Z,4.80
2022-11-28T05:21:53.098Z,4.80
2022-11-28T05:24:41.050Z,4.80
2022-11-28T05:27:27.222Z,4.70
2022-11-28T05:30:14.928Z,4.70
2022-11-28T05:33:02.104Z,4.70
2022-11-28T05:35:48.620Z,4.60
2022-11-28T05:38:35.572Z,4.70
2022-11-28T05:41:25.250Z,4.60
2022-11-28T05:44:11.952Z,4.60
2022-11-28T05:46:58.131Z,4.70
2022-11-28T05:49:45.231Z,4.70
2022-11-28T05:52:32.337Z,4.80
2022-11-28T05:55:19.055Z,4.70
2022-11-28T05:58:07.604Z,4.60
2022-11-28T06:00:53.863Z,4.60
2022-11-28T06:03:40.392Z,4.60
2022-11-28T06:06:31.639Z,4.50
2022-11-28T06:09:20.954Z,4.60
2022-11-28T06:12:10.808Z,4.70
2022-11-28T06:14:58.396Z,4.70
2022-11-28T06:17:44.591Z,4.60
2022-11-28T06:20:30.896Z,4.70
2022-11-28T06:23:17.087Z,4.70
2022-11-28T06:26:06.627Z,4.80
2022-11-28T06:28:53.373Z,4.80
2022-11-28T06:31:41.366Z,4.70
2022-11-28T06:34:28.215Z,4.70
2022-11-28T06:37:14.518Z,4.70
2022-11-28T06:40:00.672Z,4.70
2022-11-28T06:42:50.332Z,4.70
2022-11-28T06:45:37.137Z,4.70
2022-11-28T06:48:25.645Z,4.70
2022-11-28T06:51:12.498Z,4.70
2022-11-28T06:53:59.154Z,4.60
2022-11-28T06:56:45.572Z,4.50
2022-11-28T06:59:32.294Z,4.60
2022-11-28T07:02:18.983Z,4.50
2022-11-28T07:05:07.983Z,4.60
2022-11-28T07:07:54.760Z,4.60
2022-11-28T07:10:41.419Z,4.60
2022-11-28T07:13:27.667Z,4.50
2022-11-28T07:16:16.694Z,4.50
2022-11-28T07:19:03.583Z,4.60
2022-11-28T07:21:51.833Z,4.70
2022-11-28T07:24:38.349Z,4.50
2022-11-28T07:27:24.962Z,4.60
2022-11-28T07:30:11.979Z,4.70
2022-11-28T07:32:58.475Z,4.70
2022-11-28T07:35:44.770Z,4.70
2022-11-28T07:38:32.668Z,4.80
2022-11-28T07:41:24.977Z,4.70
2022-11-28T07:44:13.027Z,4.70
2022-11-28T07:46:59.692Z,4.70
2022-11-28T07:49:46.672Z,4.70
2022-11-28T07:52:33.175Z,4.70
2022-11-28T07:55:20.911Z,4.70
2022-11-28T07:58:07.270Z,4.70
2022-11-28T08:00:53.806Z,4.80
2022-11-28T08:03:40.889Z,4.70
2022-11-28T08:06:29.646Z,4.80
2022-11-28T08:09:16.000Z,4.90
2022-11-28T08:14:55.067Z,4.80
2022-11-28T08:17:41.516Z,4.80
2022-11-28T08:20:27.786Z,4.80
2022-11-28T08:23:14.349Z,4.90
2022-11-28T08:26:01.670Z,5.00
2022-11-28T08:28:50.636Z,5.10
2022-11-28T08:31:38.306Z,5.10
2022-11-28T08:34:24.575Z,5.30
2022-11-28T08:37:11.175Z,5.20
2022-11-28T08:39:57.711Z,5.30
2022-11-28T08:42:44.035Z,5.40
2022-11-28T08:45:32.475Z,5.50
2022-11-28T08:48:19.229Z,5.50
2022-11-28T08:51:06.453Z,5.50
2022-11-28T08:53:59.161Z,5.60
2022-11-28T08:56:48.186Z,5.70
2022-11-28T08:59:34.544Z,5.70
2022-11-28T09:02:25.965Z,5.80
2022-11-28T09:05:12.675Z,5.80
2022-11-28T09:07:59.442Z,5.90
2022-11-28T09:10:47.025Z,5.90
2022-11-28T09:13:33.634Z,5.80
2022-11-28T09:16:20.392Z,5.80
2022-11-28T09:19:09.281Z,5.70
2022-11-28T09:21:57.897Z,5.80
2022-11-28T09:24:44.345Z,5.90
2022-11-28T09:27:30.694Z,5.90
2022-11-28T09:30:18.031Z,5.90
2022-11-28T09:33:04.752Z,5.90
2022-11-28T09:35:52.655Z,6.00
2022-11-28T09:38:39.863Z,5.90
2022-11-28T09:41:39.698Z,6.00
2022-11-28T09:44:32.087Z,5.90
2022-11-28T09:47:23.044Z,5.90
2022-11-28T09:50:16.608Z,6.00
2022-11-28T09:53:14.688Z,5.90
2022-11-28T09:56:07.411Z,5.80
2022-11-28T09:58:58.834Z,5.90
2022-11-28T10:01:50.838Z,5.70
2022-11-28T10:04:43.463Z,5.80
2022-11-28T10:07:44.261Z,5.70
2022-11-28T10:10:42.221Z,5.70
2022-11-28T10:14:06.152Z,5.70
2022-11-28T10:16:52.838Z,5.70
2022-11-28T10:20:00.647Z,5.80
2022-11-28T10:22:52.735Z,5.80
2022-11-28T10:25:43.465Z,5.80
2022-11-28T10:28:33.989Z,5.80
2022-11-28T10:31:27.628Z,5.80
2022-11-28T10:34:20.517Z,5.80
2022-11-28T10:37:11.671Z,5.80
2022-11-28T10:40:10.719Z,5.90
2022-11-28T10:43:02.412Z,6.00
2022-11-28T10:45:55.266Z,5.90
2022-11-28T10:48:46.664Z,5.90
2022-11-28T10:51:39.260Z,5.90
2022-11-28T10:54:55.487Z,5.90
2022-11-28T10:57:47.332Z,5.90
2022-11-28T11:00:36.317Z,6.00
2022-11-28T11:03:28.062Z,6.10
2022-11-28T11:06:14.772Z,6.10
2022-11-28T11:09:01.141Z,6.20
2022-11-28T11:11:55.064Z,6.20
2022-11-28T11:14:41.650Z,6.20
2022-11-28T11:17:36.113Z,6.30
2022-11-28T11:20:33.438Z,6.40
2022-11-28T11:23:21.770Z,6.40
2022-11-28T11:26:10.363Z,6.40
2022-11-28T11:28:57.598Z,6.40
2022-11-28T11:31:45.375Z,6.40
2022-11-28T11:34:38.557Z,6.50
2022-11-28T11:37:33.922Z,6.50
2022-11-28T11:40:26.879Z,6.50
2022-11-28T11:43:36.220Z,6.60
2022-11-28T11:46:22.855Z,6.70
2022-11-28T11:49:29.367Z,6.80
2022-11-28T11:52:22.040Z,6.90
2022-11-28T11:55:14.714Z,6.90
2022-11-28T11:58:05.898Z,6.90
2022-11-28T12:00:55.772Z,7.00
2022-11-28T12:03:54.333Z,7.00
2022-11-28T12:06:48.012Z,7.00
2022-11-28T12:09:42.920Z,7.10
2022-11-28T12:12:30.782Z,7.10
2022-11-28T12:15:37.070Z,7.10
2022-11-28T12:18:32.006Z,7.20
2022-11-28T12:21:27.727Z,7.10
2022-11-28T12:24:17.563Z,7.10
2022-11-28T12:27:14.113Z,7.20
2022-11-28T12:30:21.322Z,7.20
2022-11-28T12:33:25.608Z,7.20
2022-11-28T12:36:23.352Z,7.20
2022-11-28T12:39:19.326Z,7.20
2022-11-28T12:42:30.531Z,7.20
2022-11-28T12:45:34.242Z,7.20
2022-11-28T12:48:38.000Z,7.30
2022-11-28T12:51:37.128Z,7.30
2022-11-28T12:54:45.304Z,7.30
2022-11-28T12:57:39.461Z,7.30
2022-11-28T13:00:28.014Z,7.30
2022-11-28T13:03:28.791Z,7.20
2022-11-28T13:06:28.053Z,7.30
2022-11-28T13:09:29.136Z,7.50
2022-11-28T13:12:21.272Z,7.40
2022-11-28T13:15:13.790Z,7.40
2022-11-28T13:18:05.544Z,7.40
2022-11-28T13:20:56.839Z,7.40
2022-11-28T13:23:51.804Z,7.40
2022-11-28T13:26:54.024Z,7.50
2022-11-28T13:29:48.163Z,7.50
2022-11-28T13:32:40.740Z,7.50
2022-11-28T13:35:29.126Z,7.40
2022-11-28T13:38:44.137Z,7.40
2022-11-28T13:42:06.373Z,7.40
2022-11-28T13:44:52.010Z,7.20
2022-11-28T13:47:39.935Z,7.30
2022-11-28T13:50:41.246Z,7.30
2022-11-28T13:53:27.886Z,7.40
2022-11-28T13:56:24.598Z,7.40
2022-11-28T13:59:18.071Z,7.30
2022-11-28T14:02:16.234Z,7.30
2022-11-28T14:05:06.736Z,7.30
2022-11-28T14:07:56.086Z,7.30
2022-11-28T14:11:05.642Z,7.30
2022-11-28T14:14:05.451Z,7.30
2022-11-28T14:17:05.312Z,7.30
2022-11-28T14:20:10.362Z,7.30
2022-11-28T14:23:14.449Z,7.20
2022-11-28T14:26:01.092Z,7.20
2022-11-28T14:28:47.741Z,7.10
2022-11-28T14:31:37.999Z,7.20
2022-11-28T14:34:40.759Z,7.20
2022-11-28T14:37:59.462Z,7.20
2022-11-28T14:41:11.501Z,7.10
2022-11-28T14:44:39.976Z,7.10
2022-11-28T14:47:31.860Z,7.10
2022-11-28T14:50:59.372Z,7.00
2022-11-28T14:53:50.628Z,7.00
2022-11-28T14:56:37.072Z,7.00
2022-11-28T14:59:29.520Z,7.00
2022-11-28T15:02:42.949Z,7.00
2022-11-28T15:05:42.271Z,7.00
2022-11-28T15:08:56.856Z,7.00
2022-11-28T15:11:59.495Z,6.90
2022-11-28T15:14:52.423Z,6.80
2022-11-28T15:17:40.591Z,6.80
2022-11-28T15:20:30.485Z,6.80
2022-11-28T15:23:24.413Z,6.80
2022-11-28T15:26:21.322Z,6.90
2022-11-28T15:29:11.899Z,6.80
2022-11-28T15:31:59.463Z,6.70
2022-11-28T15:34:51.629Z,6.70
2022-11-28T15:37:37.936Z,6.60
2022-11-28T15:40:27.526Z,6.70
2022-11-28T15:43:15.734Z,6.50
2022-11-28T15:46:02.884Z,6.60
2022-11-28T15:48:50.631Z,6.50
2022-11-28T15:51:37.100Z,6.60
2022-11-28T15:54:36.117Z,6.40
2022-11-28T15:57:25.108Z,6.40
2022-11-28T16:00:16.772Z,6.40
2022-11-28T16:03:03.416Z,6.40
2022-11-28T16:05:52.199Z,6.30
2022-11-28T16:08:41.808Z,6.30
2022-11-28T16:11:30.695Z,6.40
2022-11-28T16:14:22.271Z,6.40
2022-11-28T16:17:19.199Z,6.40
2022-11-28T16:20:07.187Z,6.40
2022-11-28T16:23:02.458Z,6.30
2022-11-28T16:26:00.707Z,6.30
2022-11-28T16:28:59.523Z,6.40
2022-11-28T16:31:47.772Z,6.40
2022-11-28T16:34:49.869Z,6.40
2022-11-28T16:37:36.324Z,6.40
2022-11-28T16:40:24.778Z,6.30
2022-11-28T16:43:22.079Z,6.30
2022-11-28T16:46:18.209Z,6.40
2022-11-28T16:49:07.048Z,6.30
2022-11-28T16:52:29.426Z,6.40
2022-11-28T16:55:46.173Z,6.40
2022-11-28T16:58:32.445Z,6.20
2022-11-28T17:01:18.998Z,6.30
2022-11-28T17:04:06.150Z,6.20
2022-11-28T17:06:55.103Z,6.20
2022-11-28T17:09:42.159Z,6.20
2022-11-28T17:12:30.855Z,6.20
2022-11-28T17:15:20.040Z,6.20
2022-11-28T17:18:06.563Z,6.30
2022-11-28T17:20:52.938Z,6.20
2022-11-28T17:23:41.902Z,6.20
2022-11-28T17:26:28.090Z,6.20
2022-11-28T17:29:16.269Z,6.20
2022-11-28T17:32:02.958Z,6.30
2022-11-28T17:34:49.484Z,6.20
2022-11-28T17:37:35.690Z,6.20
2022-11-28T17:40:36.617Z,6.20
2022-11-28T17:43:23.003Z,6.10
2022-11-28T17:46:09.584Z,6.00
2022-11-28T17:48:57.600Z,6.10
2022-11-28T17:51:44.322Z,6.10
2022-11-28T17:54:30.661Z,6.10
2022-11-28T17:57:18.287Z,6.20
2022-11-28T18:00:06.448Z,6.20
2022-11-28T18:02:52.620Z,6.10
2022-11-28T18:05:40.351Z,6.20
2022-11-28T18:08:26.864Z,6.10
2022-11-28T18:11:14.791Z,6.20
2022-11-28T18:14:02.650Z,6.10
2022-11-28T18:16:49.307Z,6.20
2022-11-28T18:19:35.700Z,6.20
2022-11-28T18:22:22.319Z,6.20
2022-11-28T18:25:10.278Z,6.10
2022-11-28T18:27:56.725Z,6.10
2022-11-28T18:30:45.748Z,6.10
2022-11-28T18:33:31.956Z,6.10
2022-11-28T18:36:20.999Z,6.10
2022-11-28T18:39:09.766Z,6.10
2022-11-28T18:41:56.350Z,6.00
2022-11-28T18:44:42.736Z,6.00
2022-11-28T18:47:30.524Z,5.90
2022-11-28T18:50:16.823Z,6.10
2022-11-28T18:53:03.516Z,6.20
2022-11-28T18:55:49.713Z,6.20
2022-11-28T18:58:36.785Z,6.20
2022-11-28T19:01:28.266Z,6.20
2022-11-28T19:04:16.824Z,6.20
2022-11-28T19:07:03.985Z,6.10
2022-11-28T19:09:50.424Z,6.20
2022-11-28T19:12:38.137Z,6.10
2022-11-28T19:15:24.460Z,6.10
2022-11-28T19:18:10.691Z,6.10
2022-11-28T19:20:58.803Z,6.00
2022-11-28T19:23:47.033Z,6.00
2022-11-28T19:26:34.264Z,5.90
2022-11-28T19:29:20.613Z,6.00
2022-11-28T19:32:06.957Z,6.00
2022-11-28T19:34:54.017Z,5.90
2022-11-28T19:37:42.155Z,6.00
2022-11-28T19:40:28.765Z,5.90
2022-11-28T19:43:15.047Z,6.00
2022-11-28T19:46:01.400Z,6.00
2022-11-28T19:48:51.123Z,5.80
2022-11-28T19:51:37.354Z,5.90
2022-11-28T19:54:25.733Z,5.90
2022-11-28T19:57:12.407Z,6.00
2022-11-28T19:59:58.770Z,6.00
2022-11-28T20:02:45.084Z,6.00
2022-11-28T20:05:32.314Z,6.00
2022-11-28T20:08:18.564Z,6.10
2022-11-28T20:11:11.820Z,6.10
2022-11-28T20:13:59.617Z,6.20
2022-11-28T20:16:46.957Z,6.20
2022-11-28T20:19:33.266Z,6.20
2022-11-28T20:22:21.816Z,6.30
2022-11-28T20:25:09.104Z,6.30
2022-11-28T20:27:56.712Z,6.30
2022-11-28T20:30:43.007Z,6.30
2022-11-28T20:33:29.983Z,6.40
2022-11-28T20:36:18.931Z,6.40
2022-11-28T20:39:05.881Z,6.40
2022-11-28T20:41:52.207Z,6.40
2022-11-28T20:44:39.760Z,6.40
2022-11-28T20:47:25.918Z,6.50
2022-11-28T20:50:12.292Z,6.40
2022-11-28T20:52:58.500Z,6.40
2022-11-28T20:55:45.117Z,6.40
2022-11-28T20:58:32.549Z,6.40
2022-11-28T21:01:22.323Z,6.50
2022-11-28T21:04:09.782Z,6.40
2022-11-28T21:06:56.140Z,6.40
2022-11-28T21:09:42.735Z,6.50
2022-11-28T21:12:29.618Z,6.40
2022-11-28T21:15:15.949Z,6.50
2022-11-28T21:18:05.144Z,6.40
2022-11-28T21:20:52.812Z,6.40
2022-11-28T21:23:39.582Z,6.40
2022-11-28T21:26:30.254Z,6.40
2022-11-28T21:29:17.486Z,6.50
2022-11-28T21:32:03.926Z,6.50
2022-11-28T21:34:51.592Z,6.40
2022-11-28T21:37:37.949Z,6.40
2022-11-28T21:40:24.788Z,6.40
2022-11-28T21:43:10.955Z,6.40
2022-11-28T21:46:03.082Z,6.40
2022-11-28T21:48:49.467Z,6.40
2022-11-28T21:51:37.191Z,6.40
2022-11-28T21:54:23.675Z,6.40
2022-11-28T21:57:09.946Z,6.50
2022-11-28T21:59:56.331Z,6.40
2022-11-28T22:02:46.200Z,6.50
2022-11-28T22:05:32.839Z,6.50
2022-11-28T22:08:20.759Z,6.60
2022-11-28T22:11:10.980Z,6.60
2022-11-28T22:13:57.461Z,6.50
2022-11-28T22:16:44.005Z,6.60
2022-11-28T22:19:30.706Z,6.40
2022-11-28T22:22:17.037Z,6.50
2022-11-28T22:25:05.607Z,6.50
2022-11-28T22:27:51.873Z,6.50
2022-11-28T22:30:39.673Z,6.40
2022-11-28T22:33:26.090Z,6.50
2022-11-28T22:36:14.278Z,6.50
2022-11-28T22:39:01.016Z,6.50
2022-11-28T22:41:48.670Z,6.50
2022-11-28T22:44:35.090Z,6.50
2022-11-28T22:47:21.555Z,6.50
2022-11-28T22:50:08.969Z,6.50
2022-11-28T22:52:55.595Z,6.50
2022-11-28T22:55:42.088Z,6.50
2022-11-28T22:58:29.692Z,6.50
2022-11-28T23:01:18.207Z,6.60
2022-11-28T23:04:05.127Z,6.50
2022-11-28T23:06:51.570Z,6.60
2022-11-28T23:09:37.741Z,6.60
2022-11-28T23:12:24.151Z,6.70
2022-11-28T23:15:11.921Z,6.60
2022-11-28T23:17:58.441Z,6.60
2022-11-28T23:20:44.792Z,6.60
2022-11-28T23:23:31.867Z,6.60
2022-11-28T23:26:20.146Z,6.50
2022-11-28T23:29:06.962Z,6.70
2022-11-28T23:31:54.772Z,6.60
2022-11-28T23:34:41.753Z,6.70
2022-11-28T23:37:28.128Z,6.70
2022-11-28T23:40:14.680Z,6.80
2022-11-28T23:43:01.231Z,6.70
2022-11-28T23:45:47.487Z,6.60
2022-11-28T23:48:35.891Z,6.70
2022-11-28T23:51:23.896Z,6.70
2022-11-28T23:54:12.048Z,6.80
2022-11-28T23:56:58.316Z,6.70
2022-11-28T23:59:44.799Z,6.80
